createdAt,value
2022-12-22T00:02:12.608Z,5.09
2022-12-22T00:05:16.651Z,5.11
2022-12-22T00:08:21.281Z,5.17
2022-12-22T00:11:29.795Z,5.18
2022-12-22T00:14:34.229Z,5.01
2022-12-22T00:17:43.776Z,5.16
2022-12-22T00:20:47.949Z,5.29
2022-12-22T00:23:52.585Z,5.17
2022-12-22T00:26:59.116Z,5.21
2022-12-22T00:30:04.107Z,5.25
2022-12-22T00:33:08.717Z,5.34
2022-12-22T00:36:12.971Z,5.24
2022-12-22T00:39:17.097Z,5.25
2022-12-22T00:42:23.020Z,5.23
2022-12-22T00:45:28.231Z,5.27
2022-12-22T00:48:40.261Z,5.25
2022-12-22T00:51:45.017Z,5.32
2022-12-22T00:54:49.767Z,5.31
2022-12-22T00:57:55.122Z,5.22
2022-12-22T01:00:58.981Z,5.09
2022-12-22T01:04:03.713Z,5.07
2022-12-22T01:07:07.889Z,5.03
2022-12-22T01:10:12.739Z,5.00
2022-12-22T01:13:18.588Z,4.89
2022-12-22T01:16:23.298Z,4.91
2022-12-22T01:19:27.304Z,5.08
2022-12-22T01:22:34.763Z,5.11
2022-12-22T01:25:38.853Z,5.11
2022-12-22T01:28:44.489Z,5.23
2022-12-22T01:31:51.203Z,5.10
2022-12-22T01:34:57.038Z,5.10
2022-12-22T01:38:01.378Z,5.18
2022-12-22T01:41:05.982Z,5.24
2022-12-22T01:44:11.369Z,5.14
2022-12-22T01:47:51.350Z,5.29
2022-12-22T01:50:55.656Z,5.22
2022-12-22T01:54:00.817Z,5.20
2022-12-22T01:57:06.595Z,5.33
2022-12-22T02:00:12.529Z,5.34
2022-12-22T02:03:16.885Z,5.37
2022-12-22T02:06:32.546Z,5.30
2022-12-22T02:09:50.603Z,5.34
2022-12-22T02:13:00.956Z,5.33
2022-12-22T02:16:10.410Z,5.27
2022-12-22T02:19:21.587Z,5.32
2022-12-22T02:22:36.243Z,5.34
2022-12-22T02:25:49.188Z,5.44
2022-12-22T02:28:55.480Z,5.38
2022-12-22T02:32:00.716Z,5.36
2022-12-22T02:35:04.846Z,5.43
2022-12-22T02:38:29.650Z,5.41
2022-12-22T02:41:42.898Z,5.31
2022-12-22T02:45:04.313Z,5.25
2022-12-22T02:48:17.211Z,5.27
2022-12-22T02:51:25.958Z,5.26
2022-12-22T02:54:32.552Z,5.16
2022-12-22T02:57:37.834Z,5.37
2022-12-22T03:00:43.690Z,5.27
2022-12-22T03:03:48.019Z,5.30
2022-12-22T03:06:52.204Z,5.40
2022-12-22T03:09:57.014Z,5.38
2022-12-22T03:13:01.422Z,5.41
2022-12-22T03:16:06.865Z,5.42
2022-12-22T03:19:11.062Z,5.41
2022-12-22T03:22:15.400Z,5.38
2022-12-22T03:25:19.553Z,5.35
2022-12-22T03:28:08.120Z,5.44
2022-12-22T03:30:58.724Z,5.62
2022-12-22T03:33:45.412Z,5.68
2022-12-22T03:36:32.335Z,5.46
2022-12-22T03:39:19.095Z,5.40
2022-12-22T03:42:23.096Z,5.44
2022-12-22T03:45:28.834Z,5.53
2022-12-22T03:48:16.989Z,5.57
2022-12-22T03:51:03.976Z,5.48
2022-12-22T03:53:50.689Z,5.55
2022-12-22T03:56:38.454Z,5.52
2022-12-22T03:59:25.186Z,5.44
2022-12-22T04:02:12.099Z,5.36
2022-12-22T04:05:00.146Z,5.33
2022-12-22T04:07:47.134Z,5.26
2022-12-22T04:10:51.724Z,5.21
2022-12-22T04:13:38.525Z,5.45
2022-12-22T04:16:25.378Z,5.40
2022-12-22T04:19:12.238Z,5.45
2022-12-22T04:22:01.468Z,5.38
2022-12-22T04:24:48.080Z,5.42
2022-12-22T04:27:35.104Z,4.80
2022-12-22T04:30:23.961Z,5.55
2022-12-22T04:33:11.281Z,5.51
2022-12-22T04:35:57.862Z,5.65
2022-12-22T04:38:46.685Z,5.66
2022-12-22T04:41:33.282Z,5.63
2022-12-22T04:44:19.949Z,5.72
2022-12-22T04:47:06.848Z,5.73
2022-12-22T04:49:55.751Z,5.29
2022-12-22T04:52:42.438Z,5.64
2022-12-22T04:55:30.579Z,5.51
2022-12-22T04:58:17.763Z,5.58
2022-12-22T05:01:12.447Z,5.74
2022-12-22T05:03:59.360Z,5.73
2022-12-22T05:06:46.213Z,5.68
2022-12-22T05:09:33.013Z,5.73
2022-12-22T05:12:38.821Z,5.84
2022-12-22T05:15:28.964Z,6.07
2022-12-22T05:18:15.569Z,5.97
2022-12-22T05:21:04.715Z,5.89
2022-12-22T05:23:52.121Z,5.77
2022-12-22T05:26:39.998Z,5.66
2022-12-22T05:29:27.856Z,5.70
2022-12-22T05:32:14.699Z,5.76
2022-12-22T05:35:01.685Z,5.75
2022-12-22T05:37:48.434Z,5.87
2022-12-22T05:40:35.307Z,5.80
2022-12-22T05:43:22.207Z,5.91
2022-12-22T05:46:12.639Z,5.87
2022-12-22T05:48:59.643Z,6.01
2022-12-22T05:51:46.667Z,5.90
2022-12-22T05:54:33.149Z,5.91
2022-12-22T05:57:20.093Z,5.91
2022-12-22T06:00:09.110Z,5.85
2022-12-22T06:03:00.528Z,5.98
2022-12-22T06:05:50.703Z,6.02
2022-12-22T06:08:37.285Z,5.98
2022-12-22T06:11:24.146Z,5.99
2022-12-22T06:14:11.044Z,5.93
2022-12-22T06:16:57.910Z,6.06
2022-12-22T06:19:46.246Z,6.00
2022-12-22T06:22:34.404Z,5.90
2022-12-22T06:25:21.244Z,5.98
2022-12-22T06:28:08.192Z,5.91
2022-12-22T06:30:55.258Z,5.91
2022-12-22T06:33:42.183Z,6.00
2022-12-22T06:36:30.394Z,5.97
2022-12-22T06:39:19.930Z,6.00
2022-12-22T06:42:24.454Z,6.08
2022-12-22T06:45:11.675Z,6.08
2022-12-22T06:47:58.535Z,6.14
2022-12-22T06:50:45.626Z,6.17
2022-12-22T06:53:33.601Z,6.16
2022-12-22T06:56:20.491Z,6.27
2022-12-22T06:59:07.390Z,6.28
2022-12-22T07:01:54.261Z,6.33
2022-12-22T07:04:40.954Z,6.24
2022-12-22T07:07:27.969Z,6.25
2022-12-22T07:10:16.071Z,6.29
2022-12-22T07:13:19.429Z,6.30
2022-12-22T07:16:08.781Z,6.34
2022-12-22T07:18:55.509Z,6.40
2022-12-22T07:21:42.913Z,6.48
2022-12-22T07:24:29.622Z,6.47
2022-12-22T07:27:18.309Z,6.48
2022-12-22T07:30:05.539Z,6.52
2022-12-22T07:32:52.023Z,6.50
2022-12-22T07:35:38.749Z,6.42
2022-12-22T07:38:25.915Z,6.41
2022-12-22T07:41:31.646Z,6.35
2022-12-22T07:44:21.723Z,6.40
2022-12-22T07:47:08.153Z,6.60
2022-12-22T07:50:12.361Z,6.50
2022-12-22T07:53:01.923Z,6.44
2022-12-22T07:55:48.886Z,6.57
2022-12-22T07:58:35.691Z,6.52
2022-12-22T08:01:24.253Z,6.63
2022-12-22T08:04:13.313Z,6.67
2022-12-22T08:07:00.147Z,6.62
2022-12-22T08:09:46.855Z,6.58
2022-12-22T08:12:33.740Z,6.67
2022-12-22T08:15:20.812Z,6.68
2022-12-22T08:18:08.963Z,6.55
2022-12-22T08:20:55.589Z,6.56
2022-12-22T08:23:42.875Z,6.38
2022-12-22T08:26:33.647Z,6.64
2022-12-22T08:29:25.069Z,6.63
2022-12-22T08:32:12.515Z,6.57
2022-12-22T08:35:00.768Z,6.74
2022-12-22T08:37:49.059Z,6.69
2022-12-22T08:40:36.044Z,6.68
2022-12-22T08:43:22.988Z,6.63
2022-12-22T08:46:09.679Z,6.73
2022-12-22T08:48:56.541Z,6.73
2022-12-22T08:51:44.895Z,6.78
2022-12-22T08:54:31.762Z,6.72
2022-12-22T08:57:18.670Z,6.70
2022-12-22T09:00:06.472Z,6.74
2022-12-22T09:02:53.600Z,6.83
2022-12-22T09:05:41.681Z,6.83
2022-12-22T09:08:30.001Z,6.85
2022-12-22T09:11:17.131Z,6.92
2022-12-22T09:14:04.857Z,6.97
2022-12-22T09:16:51.669Z,6.93
2022-12-22T09:19:38.591Z,6.92
2022-12-22T09:22:28.550Z,6.93
2022-12-22T09:25:18.338Z,6.93
2022-12-22T09:28:08.414Z,6.98
2022-12-22T09:30:55.870Z,7.06
2022-12-22T09:33:42.536Z,7.14
2022-12-22T09:36:31.899Z,7.09
2022-12-22T09:39:22.281Z,7.31
2022-12-22T09:42:16.896Z,7.13
2022-12-22T09:45:03.526Z,7.20
2022-12-22T09:47:53.955Z,7.34
2022-12-22T09:50:42.583Z,7.51
2022-12-22T09:53:29.141Z,7.42
2022-12-22T09:56:18.353Z,7.42
2022-12-22T09:59:11.553Z,7.34
2022-12-22T10:02:11.762Z,7.42
2022-12-22T10:05:13.964Z,7.52
2022-12-22T10:08:03.078Z,7.48
2022-12-22T10:10:54.733Z,7.76
2022-12-22T10:13:41.942Z,7.59
2022-12-22T10:16:30.584Z,7.67
2022-12-22T10:19:17.114Z,7.63
2022-12-22T10:22:23.003Z,7.71
2022-12-22T10:25:35.802Z,7.70
2022-12-22T10:28:38.337Z,7.67
2022-12-22T10:31:27.208Z,7.68
2022-12-22T10:34:17.476Z,7.73
2022-12-22T10:37:06.244Z,7.63
2022-12-22T10:39:52.784Z,7.56
2022-12-22T10:42:39.789Z,7.73
2022-12-22T10:45:28.802Z,7.72
2022-12-22T10:48:15.811Z,7.60
2022-12-22T10:51:08.115Z,7.69
2022-12-22T10:53:57.560Z,7.62
2022-12-22T10:56:44.002Z,7.61
2022-12-22T10:59:31.945Z,7.62
2022-12-22T11:02:29.687Z,7.84
2022-12-22T11:05:16.907Z,7.66
2022-12-22T11:08:18.059Z,7.77
2022-12-22T11:11:11.536Z,7.69
2022-12-22T11:14:09.473Z,7.84
2022-12-22T11:17:04.262Z,7.83
2022-12-22T11:20:04.637Z,7.77
2022-12-22T11:22:59.997Z,7.84
2022-12-22T11:25:58.825Z,7.75
2022-12-22T11:29:15.369Z,7.65
2022-12-22T11:32:21.674Z,7.73
2022-12-22T11:35:18.137Z,7.77
2022-12-22T11:38:13.574Z,7.67
2022-12-22T11:41:09.203Z,7.85
2022-12-22T11:44:12.025Z,7.84
2022-12-22T11:47:05.244Z,7.96
2022-12-22T11:50:59.767Z,7.86
2022-12-22T11:53:53.325Z,7.83
2022-12-22T11:56:43.925Z,7.62
2022-12-22T11:59:43.444Z,7.85
2022-12-22T12:03:05.448Z,7.78
2022-12-22T12:06:18.770Z,7.71
2022-12-22T12:09:27.418Z,7.92
2022-12-22T12:12:22.939Z,7.82
2022-12-22T12:15:24.394Z,7.71
2022-12-22T12:18:36.589Z,7.72
2022-12-22T12:21:28.906Z,7.73
2022-12-22T12:24:29.738Z,7.68
2022-12-22T12:27:33.761Z,7.68
2022-12-22T12:30:37.922Z,7.68
2022-12-22T12:33:37.579Z,7.64
2022-12-22T12:36:31.260Z,7.65
2022-12-22T12:39:26.397Z,7.70
2022-12-22T12:42:27.260Z,7.86
2022-12-22T12:45:35.247Z,8.03
2022-12-22T12:48:46.339Z,7.86
2022-12-22T12:51:50.479Z,7.70
2022-12-22T12:54:39.749Z,7.71
2022-12-22T12:57:30.037Z,7.65
2022-12-22T13:00:49.727Z,7.69
2022-12-22T13:06:52.141Z,7.46
2022-12-22T13:10:08.046Z,7.54
2022-12-22T13:12:58.225Z,7.55
2022-12-22T13:15:46.087Z,7.49
2022-12-22T13:18:49.720Z,7.45
2022-12-22T13:21:53.828Z,7.26
2022-12-22T13:24:49.202Z,7.54
2022-12-22T13:27:37.867Z,7.45
2022-12-22T13:30:27.929Z,7.40
2022-12-22T13:33:17.755Z,7.37
2022-12-22T13:36:06.355Z,7.39
2022-12-22T13:39:01.861Z,7.39
2022-12-22T13:41:50.963Z,7.31
2022-12-22T13:44:39.938Z,7.30
2022-12-22T13:47:28.787Z,7.32
2022-12-22T13:50:22.015Z,7.29
2022-12-22T13:53:13.058Z,7.32
2022-12-22T13:56:14.125Z,7.42
2022-12-22T13:59:02.790Z,7.38
2022-12-22T14:01:51.327Z,7.00
2022-12-22T14:04:40.923Z,7.30
2022-12-22T14:07:27.497Z,7.39
2022-12-22T14:10:15.276Z,7.40
2022-12-22T14:13:07.056Z,7.47
2022-12-22T14:16:01.997Z,7.36
2022-12-22T14:18:48.893Z,7.39
2022-12-22T14:21:37.247Z,7.37
2022-12-22T14:24:28.665Z,7.32
2022-12-22T14:27:24.910Z,7.30
2022-12-22T14:30:18.354Z,7.36
2022-12-22T14:33:27.540Z,7.53
2022-12-22T14:36:18.760Z,7.54
2022-12-22T14:39:11.278Z,7.63
2022-12-22T14:41:59.374Z,7.68
2022-12-22T14:44:47.936Z,7.70
2022-12-22T14:47:38.557Z,7.75
2022-12-22T14:50:27.243Z,7.72
2022-12-22T14:53:17.009Z,7.77
2022-12-22T14:56:05.171Z,7.78
2022-12-22T14:58:51.964Z,7.87
2022-12-22T15:01:38.986Z,7.86
2022-12-22T15:04:25.799Z,7.83
2022-12-22T15:07:54.248Z,7.85
2022-12-22T15:10:28.291Z,8.04
2022-12-22T15:13:22.007Z,7.99
2022-12-22T15:16:14.077Z,8.21
2022-12-22T15:19:01.348Z,8.21
2022-12-22T15:21:48.169Z,8.22
2022-12-22T15:24:34.974Z,8.30
2022-12-22T15:27:21.925Z,8.23
2022-12-22T15:30:11.527Z,8.35
2022-12-22T15:32:58.393Z,8.38
2022-12-22T15:35:46.293Z,8.37
2022-12-22T15:38:38.502Z,8.25
2022-12-22T15:41:25.491Z,8.26
2022-12-22T15:44:12.706Z,8.19
2022-12-22T15:47:00.662Z,8.21
2022-12-22T15:49:47.240Z,8.24
2022-12-22T15:52:34.182Z,8.18
2022-12-22T15:55:21.715Z,8.17
2022-12-22T15:58:13.060Z,8.20
2022-12-22T16:01:00.033Z,8.15
2022-12-22T16:03:48.240Z,8.10
2022-12-22T16:06:34.969Z,8.08
2022-12-22T16:09:24.487Z,8.07
2022-12-22T16:12:14.685Z,8.07
2022-12-22T16:15:02.715Z,8.04
2022-12-22T16:17:52.157Z,7.99
2022-12-22T16:20:43.895Z,8.03
2022-12-22T16:23:30.924Z,8.00
2022-12-22T16:26:20.522Z,8.04
2022-12-22T16:29:09.653Z,7.97
2022-12-22T16:32:17.578Z,7.88
2022-12-22T16:35:16.618Z,7.88
2022-12-22T16:38:05.133Z,7.88
2022-12-22T16:40:53.928Z,7.86
2022-12-22T16:43:50.535Z,7.87
2022-12-22T16:46:39.702Z,7.74
2022-12-22T16:49:27.205Z,7.75
2022-12-22T16:52:21.782Z,7.78
2022-12-22T16:55:16.462Z,7.76
2022-12-22T16:58:12.919Z,7.62
2022-12-22T17:01:01.772Z,7.76
2022-12-22T17:03:50.183Z,7.75
2022-12-22T17:06:38.642Z,7.39
2022-12-22T17:09:29.971Z,7.40
2022-12-22T17:12:22.071Z,7.31
2022-12-22T17:15:15.130Z,7.28
2022-12-22T17:18:03.779Z,7.23
2022-12-22T17:20:53.550Z,7.02
2022-12-22T17:23:44.115Z,6.89
2022-12-22T17:26:34.519Z,6.96
2022-12-22T17:29:25.769Z,7.06
2022-12-22T17:32:14.638Z,7.11
2022-12-22T17:35:01.581Z,6.96
2022-12-22T17:37:49.212Z,6.95
2022-12-22T17:40:36.104Z,6.81
2022-12-22T17:43:23.054Z,6.94
2022-12-22T17:46:16.135Z,6.72
2022-12-22T17:49:03.334Z,6.69
2022-12-22T17:51:50.899Z,6.53
2022-12-22T17:54:37.834Z,6.55
2022-12-22T17:57:27.131Z,6.42
2022-12-22T18:00:19.069Z,6.43
2022-12-22T18:03:18.402Z,6.40
2022-12-22T18:06:14.357Z,6.39
2022-12-22T18:09:05.406Z,6.45
2022-12-22T18:11:52.200Z,6.59
2022-12-22T18:14:39.157Z,6.60
2022-12-22T18:17:34.912Z,6.68
2022-12-22T18:20:26.333Z,6.63
2022-12-22T18:23:17.786Z,6.71
2022-12-22T18:26:05.433Z,6.76
2022-12-22T18:28:52.607Z,6.65
2022-12-22T18:31:39.486Z,6.49
2022-12-22T18:34:25.948Z,6.45
2022-12-22T18:37:17.215Z,6.47
2022-12-22T18:40:03.947Z,6.31
2022-12-22T18:42:51.775Z,6.28
2022-12-22T18:45:38.528Z,6.37
2022-12-22T18:48:25.235Z,6.26
2022-12-22T18:51:19.589Z,6.23
2022-12-22T18:54:21.951Z,6.29
2022-12-22T18:57:14.442Z,6.41
2022-12-22T19:00:01.482Z,6.43
2022-12-22T19:02:50.021Z,6.45
2022-12-22T19:05:38.003Z,6.44
2022-12-22T19:08:26.888Z,6.35
2022-12-22T19:11:17.425Z,6.17
2022-12-22T19:14:04.160Z,6.22
2022-12-22T19:16:51.378Z,6.28
2022-12-22T19:19:38.224Z,6.40
2022-12-22T19:22:25.007Z,5.99
2022-12-22T19:25:15.227Z,6.38
2022-12-22T19:28:08.421Z,6.37
2022-12-22T19:30:57.220Z,6.17
2022-12-22T19:33:45.007Z,6.27
2022-12-22T19:36:35.825Z,6.03
2022-12-22T19:39:25.026Z,6.11
2022-12-22T19:42:15.012Z,5.99
2022-12-22T19:45:10.214Z,5.96
2022-12-22T19:47:58.922Z,5.82
2022-12-22T19:50:46.035Z,5.59
2022-12-22T19:53:32.702Z,5.53
2022-12-22T19:56:24.335Z,5.37
2022-12-22T19:59:26.287Z,5.41
2022-12-22T20:02:27.557Z,5.41
2022-12-22T20:05:30.757Z,5.23
2022-12-22T20:08:17.671Z,5.42
2022-12-22T20:11:07.551Z,5.22
2022-12-22T20:13:54.980Z,5.16
2022-12-22T20:16:42.898Z,5.28
2022-12-22T20:19:31.355Z,5.21
2022-12-22T20:22:19.626Z,5.01
2022-12-22T20:25:08.211Z,4.87
2022-12-22T20:27:57.300Z,4.89
2022-12-22T20:30:44.297Z,4.84
2022-12-22T20:33:31.606Z,4.80
2022-12-22T20:36:23.086Z,4.83
2022-12-22T20:39:13.741Z,4.69
2022-12-22T20:42:00.416Z,4.75
2022-12-22T20:45:03.967Z,4.62
2022-12-22T20:47:52.758Z,4.28
2022-12-22T20:50:39.301Z,4.65
2022-12-22T20:53:28.087Z,4.49
2022-12-22T20:56:22.682Z,4.46
2022-12-22T20:59:14.834Z,4.37
2022-12-22T21:02:02.059Z,4.50
2022-12-22T21:04:49.130Z,4.60
2022-12-22T21:07:35.661Z,4.71
2022-12-22T21:10:26.454Z,4.56
2022-12-22T21:13:14.063Z,4.78
2022-12-22T21:16:00.523Z,4.84
2022-12-22T21:18:47.755Z,4.74
2022-12-22T21:21:34.881Z,5.04
2022-12-22T21:24:21.741Z,4.86
2022-12-22T21:27:18.344Z,4.80
2022-12-22T21:30:05.458Z,5.10
2022-12-22T21:32:53.251Z,4.95
2022-12-22T21:35:41.715Z,4.89
2022-12-22T21:38:32.927Z,4.96
2022-12-22T21:41:19.626Z,5.07
2022-12-22T21:44:08.658Z,4.96
2022-12-22T21:46:56.025Z,4.78
2022-12-22T21:49:43.703Z,4.64
2022-12-22T21:52:31.145Z,4.68
2022-12-22T21:55:20.176Z,4.56
2022-12-22T21:58:09.464Z,4.76
2022-12-22T22:00:58.233Z,4.73
2022-12-22T22:03:45.749Z,4.89
2022-12-22T22:06:33.108Z,5.03
2022-12-22T22:09:22.855Z,4.80
2022-12-22T22:12:29.358Z,4.94
2022-12-22T22:15:16.990Z,4.91
2022-12-22T22:18:07.460Z,4.84
2022-12-22T22:20:56.075Z,4.79
2022-12-22T22:23:43.951Z,4.76
2022-12-22T22:26:31.461Z,4.75
2022-12-22T22:29:18.831Z,4.78
2022-12-22T22:32:07.219Z,4.79
2022-12-22T22:34:56.192Z,4.93
2022-12-22T22:37:46.108Z,5.02
2022-12-22T22:40:33.604Z,5.16
2022-12-22T22:43:21.114Z,5.20
2022-12-22T22:46:07.980Z,5.15
2022-12-22T22:48:55.855Z,4.99
2022-12-22T22:51:44.298Z,4.71
2022-12-22T22:54:31.322Z,5.13
2022-12-22T22:57:18.215Z,5.05
2022-12-22T23:00:07.342Z,5.25
2022-12-22T23:02:54.178Z,5.28
2022-12-22T23:05:41.189Z,5.26
2022-12-22T23:08:30.665Z,5.21
2022-12-22T23:11:18.538Z,5.33
2022-12-22T23:14:05.849Z,4.98
2022-12-22T23:16:53.123Z,5.28
2022-12-22T23:19:40.303Z,5.22
2022-12-22T23:22:27.282Z,5.24
2022-12-22T23:25:15.543Z,5.22
2022-12-22T23:28:02.509Z,5.21
2022-12-22T23:30:51.387Z,5.26
2022-12-22T23:33:38.938Z,5.42
2022-12-22T23:36:26.197Z,5.28
2022-12-22T23:39:13.277Z,5.24
2022-12-22T23:42:01.161Z,5.30
2022-12-22T23:44:49.300Z,5.32
2022-12-22T23:47:35.853Z,5.27
2022-12-22T23:50:22.753Z,4.96
2022-12-22T23:53:09.319Z,5.20
2022-12-22T23:55:56.670Z,5.20
2022-12-22T23:58:49.471Z,5.11
